sensor_id;sensor_type;location;lat;lon;timestamp;P1;durP1;ratioP1;P2;durP2;ratioP2
21213;SDS011;10764;50.850;2.904;2022-12-31T00:00:10;1.30;;;0.30;;
21213;SDS011;10764;50.850;2.904;2022-12-31T00:02:41;0.70;;;0.30;;
21213;SDS011;10764;50.850;2.904;2022-12-31T00:05:37;0.90;;;0.20;;
21213;SDS011;10764;50.850;2.904;2022-12-31T00:08:33;0.67;;;0.20;;
21213;SDS011;10764;50.850;2.904;2022-12-31T00:11:18;0.40;;;0.20;;
21213;SDS011;10764;50.850;2.904;2022-12-31T00:13:46;0.60;;;0.20;;
21213;SDS011;10764;50.850;2.904;2022-12-31T00:16:18;0.60;;;0.20;;
21213;SDS011;10764;50.850;2.904;2022-12-31T00:19:22;0.73;;;0.20;;
21213;SDS011;10764;50.850;2.904;2022-12-31T00:24:41;0.30;;;0.20;;
21213;SDS011;10764;50.850;2.904;2022-12-31T00:27:17;0.40;;;0.20;;
21213;SDS011;10764;50.850;2.904;2022-12-31T00:30:06;0.40;;;0.10;;
21213;SDS011;10764;50.850;2.904;2022-12-31T00:32:54;0.32;;;0.20;;
21213;SDS011;10764;50.850;2.904;2022-12-31T00:35:32;0.55;;;0.20;;
21213;SDS011;10764;50.850;2.904;2022-12-31T00:38:13;0.45;;;0.15;;
21213;SDS011;10764;50.850;2.904;2022-12-31T00:40:44;0.30;;;0.20;;
21213;SDS011;10764;50.850;2.904;2022-12-31T00:43:11;0.40;;;0.17;;
21213;SDS011;10764;50.850;2.904;2022-12-31T00:45:51;0.40;;;0.20;;
21213;SDS011;10764;50.850;2.904;2022-12-31T00:48:25;0.43;;;0.10;;
21213;SDS011;10764;50.850;2.904;2022-12-31T00:51:06;0.20;;;0.10;;
21213;SDS011;10764;50.850;2.904;2022-12-31T00:53:43;0.35;;;0.10;;
21213;SDS011;10764;50.850;2.904;2022-12-31T00:56:36;1.42;;;0.10;;
21213;SDS011;10764;50.850;2.904;2022-12-31T00:59:43;0.35;;;0.13;;
21213;SDS011;10764;50.850;2.904;2022-12-31T01:02:32;0.40;;;0.10;;
21213;SDS011;10764;50.850;2.904;2022-12-31T01:05:31;0.35;;;0.10;;
21213;SDS011;10764;50.850;2.904;2022-12-31T01:08:36;0.20;;;0.10;;
21213;SDS011;10764;50.850;2.904;2022-12-31T01:11:31;0.55;;;0.20;;
21213;SDS011;10764;50.850;2.904;2022-12-31T01:18:07;0.20;;;0.10;;
21213;SDS011;10764;50.850;2.904;2022-12-31T01:20:43;0.37;;;0.10;;
21213;SDS011;10764;50.850;2.904;2022-12-31T01:23:24;0.50;;;0.10;;
21213;SDS011;10764;50.850;2.904;2022-12-31T01:25:54;0.47;;;0.10;;
21213;SDS011;10764;50.850;2.904;2022-12-31T01:28:24;0.20;;;0.10;;
21213;SDS011;10764;50.850;2.904;2022-12-31T01:31:03;0.15;;;0.10;;
21213;SDS011;10764;50.850;2.904;2022-12-31T01:33:45;0.15;;;0.10;;
21213;SDS011;10764;50.850;2.904;2022-12-31T01:36:42;0.50;;;0.20;;
21213;SDS011;10764;50.850;2.904;2022-12-31T01:43:00;0.40;;;0.10;;
21213;SDS011;10764;50.850;2.904;2022-12-31T01:46:00;0.40;;;0.10;;
21213;SDS011;10764;50.850;2.904;2022-12-31T01:48:42;1.20;;;0.20;;
21213;SDS011;10764;50.850;2.904;2022-12-31T01:51:27;0.38;;;0.10;;
21213;SDS011;10764;50.850;2.904;2022-12-31T01:54:08;0.10;;;0.10;;
21213;SDS011;10764;50.850;2.904;2022-12-31T02:35:47;0.00;;;0.00;;
21213;SDS011;10764;50.850;2.904;2022-12-31T02:38:59;0.35;;;0.10;;
21213;SDS011;10764;50.850;2.904;2022-12-31T02:41:35;0.53;;;0.10;;
21213;SDS011;10764;50.850;2.904;2022-12-31T02:44:57;0.40;;;0.10;;
21213;SDS011;10764;50.850;2.904;2022-12-31T03:01:40;0.15;;;0.10;;
21213;SDS011;10764;50.850;2.904;2022-12-31T03:04:59;0.10;;;0.10;;
21213;SDS011;10764;50.850;2.904;2022-12-31T03:07:29;0.38;;;0.10;;
21213;SDS011;10764;50.850;2.904;2022-12-31T03:10:10;0.30;;;0.03;;
21213;SDS011;10764;50.850;2.904;2022-12-31T03:12:56;0.50;;;0.10;;
21213;SDS011;10764;50.850;2.904;2022-12-31T03:19:12;0.90;;;0.10;;
21213;SDS011;10764;50.850;2.904;2022-12-31T03:22:15;0.00;;;0.00;;
21213;SDS011;10764;50.850;2.904;2022-12-31T03:25:12;0.30;;;0.00;;
21213;SDS011;10764;50.850;2.904;2022-12-31T03:28:50;0.08;;;0.08;;
21213;SDS011;10764;50.850;2.904;2022-12-31T03:31:25;0.30;;;0.10;;
21213;SDS011;10764;50.850;2.904;2022-12-31T03:33:58;0.10;;;0.10;;
21213;SDS011;10764;50.850;2.904;2022-12-31T03:36:56;0.40;;;0.10;;
21213;SDS011;10764;50.850;2.904;2022-12-31T03:43:40;0.77;;;0.20;;
21213;SDS011;10764;50.850;2.904;2022-12-31T03:46:21;0.30;;;0.10;;
21213;SDS011;10764;50.850;2.904;2022-12-31T03:49:06;0.68;;;0.15;;
21213;SDS011;10764;50.850;2.904;2022-12-31T03:51:58;0.20;;;0.10;;
21213;SDS011;10764;50.850;2.904;2022-12-31T03:54:53;0.50;;;0.10;;
21213;SDS011;10764;50.850;2.904;2022-12-31T03:57:57;0.50;;;0.20;;
21213;SDS011;10764;50.850;2.904;2022-12-31T04:00:36;0.70;;;0.10;;
21213;SDS011;10764;50.850;2.904;2022-12-31T04:03:38;1.17;;;0.10;;
21213;SDS011;10764;50.850;2.904;2022-12-31T04:07:06;0.47;;;0.17;;
21213;SDS011;10764;50.850;2.904;2022-12-31T04:09:45;1.20;;;0.20;;
21213;SDS011;10764;50.850;2.904;2022-12-31T04:12:18;0.57;;;0.10;;
21213;SDS011;10764;50.850;2.904;2022-12-31T04:15:13;0.60;;;0.20;;
21213;SDS011;10764;50.850;2.904;2022-12-31T04:18:01;0.55;;;0.20;;
21213;SDS011;10764;50.850;2.904;2022-12-31T04:25:00;0.30;;;0.10;;
21213;SDS011;10764;50.850;2.904;2022-12-31T04:28:04;0.90;;;0.22;;
21213;SDS011;10764;50.850;2.904;2022-12-31T04:30:56;0.70;;;0.10;;
21213;SDS011;10764;50.850;2.904;2022-12-31T04:34:10;0.70;;;0.20;;
21213;SDS011;10764;50.850;2.904;2022-12-31T04:51:51;0.65;;;0.10;;
21213;SDS011;10764;50.850;2.904;2022-12-31T04:55:09;0.60;;;0.20;;
21213;SDS011;10764;50.850;2.904;2022-12-31T04:58:08;0.38;;;0.10;;
21213;SDS011;10764;50.850;2.904;2022-12-31T05:00:51;0.50;;;0.10;;
21213;SDS011;10764;50.850;2.904;2022-12-31T05:03:49;0.63;;;0.20;;
21213;SDS011;10764;50.850;2.904;2022-12-31T05:06:58;1.48;;;0.17;;
21213;SDS011;10764;50.850;2.904;2022-12-31T05:10:09;0.43;;;0.20;;
21213;SDS011;10764;50.850;2.904;2022-12-31T05:13:09;1.10;;;0.20;;
21213;SDS011;10764;50.850;2.904;2022-12-31T05:16:11;0.68;;;0.10;;
21213;SDS011;10764;50.850;2.904;2022-12-31T05:19:03;0.63;;;0.15;;
21213;SDS011;10764;50.850;2.904;2022-12-31T05:21:42;0.70;;;0.20;;
21213;SDS011;10764;50.850;2.904;2022-12-31T05:24:33;1.05;;;0.20;;
21213;SDS011;10764;50.850;2.904;2022-12-31T05:36:35;1.00;;;0.20;;
21213;SDS011;10764;50.850;2.904;2022-12-31T05:39:22;1.13;;;0.17;;
21213;SDS011;10764;50.850;2.904;2022-12-31T05:45:33;0.15;;;0.00;;
21213;SDS011;10764;50.850;2.904;2022-12-31T05:48:48;0.88;;;0.10;;
21213;SDS011;10764;50.850;2.904;2022-12-31T05:51:20;0.70;;;0.20;;
21213;SDS011;10764;50.850;2.904;2022-12-31T05:57:32;0.90;;;0.20;;
21213;SDS011;10764;50.850;2.904;2022-12-31T06:03:19;0.20;;;0.10;;
21213;SDS011;10764;50.850;2.904;2022-12-31T06:06:03;0.60;;;0.10;;
21213;SDS011;10764;50.850;2.904;2022-12-31T06:09:00;0.50;;;0.17;;
21213;SDS011;10764;50.850;2.904;2022-12-31T06:15:53;0.60;;;0.10;;
21213;SDS011;10764;50.850;2.904;2022-12-31T06:18:50;0.95;;;0.20;;
21213;SDS011;10764;50.850;2.904;2022-12-31T06:21:42;0.35;;;0.10;;
21213;SDS011;10764;50.850;2.904;2022-12-31T06:24:53;0.40;;;0.20;;
21213;SDS011;10764;50.850;2.904;2022-12-31T06:31:12;0.52;;;0.10;;
21213;SDS011;10764;50.850;2.904;2022-12-31T06:33:44;0.95;;;0.20;;
21213;SDS011;10764;50.850;2.904;2022-12-31T06:36:16;0.80;;;0.10;;
21213;SDS011;10764;50.850;2.904;2022-12-31T06:38:51;0.90;;;0.20;;
21213;SDS011;10764;50.850;2.904;2022-12-31T06:41:22;1.25;;;0.30;;
21213;SDS011;10764;50.850;2.904;2022-12-31T06:43:53;0.83;;;0.20;;
21213;SDS011;10764;50.850;2.904;2022-12-31T06:51:16;1.45;;;0.30;;
21213;SDS011;10764;50.850;2.904;2022-12-31T06:53:52;0.60;;;0.20;;
21213;SDS011;10764;50.850;2.904;2022-12-31T06:56:22;0.77;;;0.20;;
21213;SDS011;10764;50.850;2.904;2022-12-31T06:59:04;0.82;;;0.28;;
21213;SDS011;10764;50.850;2.904;2022-12-31T07:01:50;1.55;;;0.20;;
21213;SDS011;10764;50.850;2.904;2022-12-31T07:11:25;1.27;;;0.20;;
21213;SDS011;10764;50.850;2.904;2022-12-31T07:21:45;1.67;;;0.20;;
21213;SDS011;10764;50.850;2.904;2022-12-31T07:25:11;0.82;;;0.32;;
21213;SDS011;10764;50.850;2.904;2022-12-31T07:42:40;0.95;;;0.22;;
21213;SDS011;10764;50.850;2.904;2022-12-31T07:48:23;1.13;;;0.23;;
21213;SDS011;10764;50.850;2.904;2022-12-31T07:51:08;1.10;;;0.27;;
21213;SDS011;10764;50.850;2.904;2022-12-31T07:53:49;1.15;;;0.30;;
21213;SDS011;10764;50.850;2.904;2022-12-31T07:56:46;1.30;;;0.30;;
21213;SDS011;10764;50.850;2.904;2022-12-31T08:06:13;1.15;;;0.30;;
21213;SDS011;10764;50.850;2.904;2022-12-31T08:31:17;1.00;;;0.30;;
21213;SDS011;10764;50.850;2.904;2022-12-31T08:54:22;3.30;;;0.50;;
21213;SDS011;10764;50.850;2.904;2022-12-31T12:38:44;2.65;;;0.50;;
21213;SDS011;10764;50.850;2.904;2022-12-31T12:42:08;1.60;;;0.60;;
21213;SDS011;10764;50.850;2.904;2022-12-31T12:48:43;3.08;;;0.50;;
21213;SDS011;10764;50.850;2.904;2022-12-31T13:12:58;2.30;;;0.50;;
21213;SDS011;10764;50.850;2.904;2022-12-31T13:20:32;2.22;;;0.77;;
21213;SDS011;10764;50.850;2.904;2022-12-31T13:24:01;3.90;;;0.70;;
21213;SDS011;10764;50.850;2.904;2022-12-31T13:44:50;3.05;;;0.80;;
21213;SDS011;10764;50.850;2.904;2022-12-31T13:50:16;3.83;;;1.00;;
21213;SDS011;10764;50.850;2.904;2022-12-31T13:57:00;4.93;;;0.87;;
21213;SDS011;10764;50.850;2.904;2022-12-31T13:59:38;3.13;;;0.88;;
21213;SDS011;10764;50.850;2.904;2022-12-31T14:02:29;3.53;;;1.00;;
21213;SDS011;10764;50.850;2.904;2022-12-31T14:30:28;2.70;;;0.80;;
21213;SDS011;10764;50.850;2.904;2022-12-31T15:37:32;5.33;;;1.57;;
